< < Back
Terminal Aerodrome Forecast


Current Version              Previous Versions:   1  2  3  4  5  6  7  8  9  

Terminal Aerodrome Forecast

255
FTUS42 KGSP 030228 AAC
TAFAVL
TAF AMD
KAVL 030228Z 0302/0324 VRB05KT P6SM SCT060 BKN250
      TEMPO 0302/0304 35008G17KT 1SM TSRA BR FEW010 BKN025 OVC040CB
     FM030400 32005KT P6SM OVC045
      TEMPO 0304/0306 34010G19KT 4SM -SHRA OVC025
     FM031000 31006KT P6SM VCSH BKN008
     FM031300 33009G16KT P6SM BKN045 PROB30 0313/0318 4SM -TSRA
      OVC025CB=



Latest METAR

134
SAUS70 KWBC 030258
MTRAVL
METAR KAVL 030254Z AUTO 07003KT 10SM -TSRA BKN060 BKN075 OVC090 16/15
A2997 RMK AO2 LTG DSNT NE AND SE RAB06 TSB18E36B37 SLP127
P0029 60029 T01610150 51018


USA.gov is the U.S. government's official web portal to all federal, state and local government web resources and services.